sensor_id;sensor_type;location;lat;lon;timestamp;temperature;humidity
5392;DHT22;2719;53.624;9.786;2022-09-28T00:01:31;10.30;99.90
5392;DHT22;2719;53.624;9.786;2022-09-28T00:03:58;10.30;99.90
5392;DHT22;2719;53.624;9.786;2022-09-28T00:06:27;10.30;99.90
5392;DHT22;2719;53.624;9.786;2022-09-28T00:08:57;10.30;99.90
5392;DHT22;2719;53.624;9.786;2022-09-28T00:11:25;10.30;99.90
5392;DHT22;2719;53.624;9.786;2022-09-28T00:13:55;10.30;99.90
5392;DHT22;2719;53.624;9.786;2022-09-28T00:16:24;10.30;99.90
5392;DHT22;2719;53.624;9.786;2022-09-28T00:18:51;10.30;99.90
5392;DHT22;2719;53.624;9.786;2022-09-28T00:21:20;10.30;99.90
5392;DHT22;2719;53.624;9.786;2022-09-28T00:23:49;10.30;99.90
5392;DHT22;2719;53.624;9.786;2022-09-28T00:26:35;10.30;99.90
5392;DHT22;2719;53.624;9.786;2022-09-28T00:29:03;10.40;99.90
5392;DHT22;2719;53.624;9.786;2022-09-28T00:31:31;10.30;99.90
5392;DHT22;2719;53.624;9.786;2022-09-28T00:33:58;10.30;99.90
5392;DHT22;2719;53.624;9.786;2022-09-28T00:36:26;10.30;99.90
5392;DHT22;2719;53.624;9.786;2022-09-28T00:38:53;10.40;99.90
5392;DHT22;2719;53.624;9.786;2022-09-28T00:41:21;10.40;99.90
5392;DHT22;2719;53.624;9.786;2022-09-28T00:43:49;10.40;99.90
5392;DHT22;2719;53.624;9.786;2022-09-28T00:46:18;10.40;99.90
5392;DHT22;2719;53.624;9.786;2022-09-28T00:48:51;10.40;99.90
5392;DHT22;2719;53.624;9.786;2022-09-28T00:51:20;10.50;99.90
5392;DHT22;2719;53.624;9.786;2022-09-28T00:53:48;10.50;99.90
5392;DHT22;2719;53.624;9.786;2022-09-28T00:56:18;10.50;99.90
5392;DHT22;2719;53.624;9.786;2022-09-28T00:58:50;10.50;99.90
5392;DHT22;2719;53.624;9.786;2022-09-28T01:01:17;10.50;99.90
5392;DHT22;2719;53.624;9.786;2022-09-28T01:03:44;10.50;99.90
5392;DHT22;2719;53.624;9.786;2022-09-28T01:06:17;10.50;99.90
5392;DHT22;2719;53.624;9.786;2022-09-28T01:08:44;10.50;99.90
5392;DHT22;2719;53.624;9.786;2022-09-28T01:11:15;10.50;99.90
5392;DHT22;2719;53.624;9.786;2022-09-28T01:13:42;10.50;99.90
5392;DHT22;2719;53.624;9.786;2022-09-28T01:16:16;10.50;99.90
5392;DHT22;2719;53.624;9.786;2022-09-28T01:18:51;10.50;99.90
5392;DHT22;2719;53.624;9.786;2022-09-28T01:21:23;10.50;99.90
5392;DHT22;2719;53.624;9.786;2022-09-28T01:24:20;10.40;99.90
5392;DHT22;2719;53.624;9.786;2022-09-28T01:26:56;10.40;99.90
5392;DHT22;2719;53.624;9.786;2022-09-28T01:29:41;10.40;99.90
5392;DHT22;2719;53.624;9.786;2022-09-28T01:32:20;10.40;99.90
5392;DHT22;2719;53.624;9.786;2022-09-28T01:34:55;10.40;99.90
5392;DHT22;2719;53.624;9.786;2022-09-28T01:37:26;10.40;99.90
5392;DHT22;2719;53.624;9.786;2022-09-28T01:39:56;10.30;99.90
5392;DHT22;2719;53.624;9.786;2022-09-28T01:42:28;10.30;99.90
5392;DHT22;2719;53.624;9.786;2022-09-28T01:45:00;10.30;99.90
5392;DHT22;2719;53.624;9.786;2022-09-28T01:47:33;10.30;99.90
5392;DHT22;2719;53.624;9.786;2022-09-28T01:50:05;10.30;99.90
5392;DHT22;2719;53.624;9.786;2022-09-28T01:52:37;10.30;99.90
5392;DHT22;2719;53.624;9.786;2022-09-28T01:55:10;10.30;99.90
5392;DHT22;2719;53.624;9.786;2022-09-28T01:57:41;10.30;99.90
5392;DHT22;2719;53.624;9.786;2022-09-28T02:00:10;10.30;99.90
5392;DHT22;2719;53.624;9.786;2022-09-28T02:02:40;10.20;99.90
5392;DHT22;2719;53.624;9.786;2022-09-28T02:05:12;10.20;99.90
5392;DHT22;2719;53.624;9.786;2022-09-28T02:07:43;10.20;99.90
5392;DHT22;2719;53.624;9.786;2022-09-28T02:10:13;10.20;99.90
5392;DHT22;2719;53.624;9.786;2022-09-28T02:12:45;10.20;99.90
5392;DHT22;2719;53.624;9.786;2022-09-28T02:15:17;10.20;99.90
5392;DHT22;2719;53.624;9.786;2022-09-28T02:17:45;10.20;99.90
5392;DHT22;2719;53.624;9.786;2022-09-28T02:20:12;10.20;99.90
5392;DHT22;2719;53.624;9.786;2022-09-28T02:22:44;10.30;99.90
5392;DHT22;2719;53.624;9.786;2022-09-28T02:25:19;10.20;99.90
5392;DHT22;2719;53.624;9.786;2022-09-28T02:27:52;10.30;99.90
5392;DHT22;2719;53.624;9.786;2022-09-28T02:30:20;10.30;99.90
5392;DHT22;2719;53.624;9.786;2022-09-28T02:32:50;10.30;99.90
5392;DHT22;2719;53.624;9.786;2022-09-28T02:35:19;10.30;99.90
5392;DHT22;2719;53.624;9.786;2022-09-28T02:37:46;10.30;99.90
5392;DHT22;2719;53.624;9.786;2022-09-28T02:40:14;10.30;99.90
5392;DHT22;2719;53.624;9.786;2022-09-28T02:42:51;10.20;99.90
5392;DHT22;2719;53.624;9.786;2022-09-28T02:45:35;10.20;99.90
5392;DHT22;2719;53.624;9.786;2022-09-28T02:48:14;10.20;99.90
5392;DHT22;2719;53.624;9.786;2022-09-28T02:50:49;10.20;99.90
5392;DHT22;2719;53.624;9.786;2022-09-28T02:53:43;10.20;99.90
5392;DHT22;2719;53.624;9.786;2022-09-28T02:56:24;10.10;99.90
5392;DHT22;2719;53.624;9.786;2022-09-28T02:58:59;10.10;99.90
5392;DHT22;2719;53.624;9.786;2022-09-28T03:01:34;10.00;99.90
5392;DHT22;2719;53.624;9.786;2022-09-28T03:04:09;10.00;99.90
5392;DHT22;2719;53.624;9.786;2022-09-28T03:06:41;10.00;99.90
5392;DHT22;2719;53.624;9.786;2022-09-28T03:09:15;9.90;99.90
5392;DHT22;2719;53.624;9.786;2022-09-28T03:11:46;9.90;99.90
5392;DHT22;2719;53.624;9.786;2022-09-28T03:14:16;9.90;99.90
5392;DHT22;2719;53.624;9.786;2022-09-28T03:16:43;9.90;99.90
5392;DHT22;2719;53.624;9.786;2022-09-28T03:19:10;9.90;99.90
5392;DHT22;2719;53.624;9.786;2022-09-28T03:21:37;9.90;99.90
5392;DHT22;2719;53.624;9.786;2022-09-28T03:24:04;9.90;99.90
5392;DHT22;2719;53.624;9.786;2022-09-28T03:26:31;9.90;99.90
5392;DHT22;2719;53.624;9.786;2022-09-28T03:28:58;9.90;99.90
5392;DHT22;2719;53.624;9.786;2022-09-28T03:31:26;9.90;99.90
5392;DHT22;2719;53.624;9.786;2022-09-28T03:33:53;9.90;99.90
5392;DHT22;2719;53.624;9.786;2022-09-28T03:36:20;9.90;99.90
5392;DHT22;2719;53.624;9.786;2022-09-28T03:38:46;10.00;99.90
5392;DHT22;2719;53.624;9.786;2022-09-28T03:41:13;10.00;99.90
5392;DHT22;2719;53.624;9.786;2022-09-28T03:43:39;10.00;99.90
5392;DHT22;2719;53.624;9.786;2022-09-28T03:46:06;10.00;99.90
5392;DHT22;2719;53.624;9.786;2022-09-28T03:48:35;9.90;99.90
5392;DHT22;2719;53.624;9.786;2022-09-28T03:51:04;9.90;99.90
5392;DHT22;2719;53.624;9.786;2022-09-28T03:53:33;9.80;99.90
5392;DHT22;2719;53.624;9.786;2022-09-28T03:56:05;9.80;99.90
5392;DHT22;2719;53.624;9.786;2022-09-28T03:58:32;9.80;99.90
5392;DHT22;2719;53.624;9.786;2022-09-28T04:01:02;9.80;99.90
5392;DHT22;2719;53.624;9.786;2022-09-28T04:03:29;9.80;99.90
5392;DHT22;2719;53.624;9.786;2022-09-28T04:05:57;9.70;99.90
5392;DHT22;2719;53.624;9.786;2022-09-28T04:08:24;9.70;99.90
5392;DHT22;2719;53.624;9.786;2022-09-28T04:10:51;9.70;99.90
5392;DHT22;2719;53.624;9.786;2022-09-28T04:13:17;9.60;99.90
5392;DHT22;2719;53.624;9.786;2022-09-28T04:15:51;9.60;99.90
5392;DHT22;2719;53.624;9.786;2022-09-28T04:18:18;9.60;99.90
5392;DHT22;2719;53.624;9.786;2022-09-28T04:20:45;9.60;99.90
5392;DHT22;2719;53.624;9.786;2022-09-28T04:23:14;9.60;99.90
5392;DHT22;2719;53.624;9.786;2022-09-28T04:25:40;9.60;99.90
5392;DHT22;2719;53.624;9.786;2022-09-28T04:28:10;9.70;99.90
5392;DHT22;2719;53.624;9.786;2022-09-28T04:30:54;9.70;99.90
5392;DHT22;2719;53.624;9.786;2022-09-28T04:33:21;9.50;99.90
5392;DHT22;2719;53.624;9.786;2022-09-28T04:35:47;9.60;99.90
5392;DHT22;2719;53.624;9.786;2022-09-28T04:38:15;9.50;99.90
5392;DHT22;2719;53.624;9.786;2022-09-28T04:40:42;9.40;99.90
5392;DHT22;2719;53.624;9.786;2022-09-28T04:43:09;9.30;99.90
5392;DHT22;2719;53.624;9.786;2022-09-28T04:45:35;9.40;99.90
5392;DHT22;2719;53.624;9.786;2022-09-28T04:48:05;9.30;99.90
5392;DHT22;2719;53.624;9.786;2022-09-28T04:50:31;9.40;99.90
5392;DHT22;2719;53.624;9.786;2022-09-28T04:52:59;9.40;99.90
5392;DHT22;2719;53.624;9.786;2022-09-28T04:55:27;9.40;99.90
5392;DHT22;2719;53.624;9.786;2022-09-28T04:57:56;9.50;99.90
5392;DHT22;2719;53.624;9.786;2022-09-28T05:00:27;9.50;99.90
5392;DHT22;2719;53.624;9.786;2022-09-28T05:02:53;9.50;99.90
5392;DHT22;2719;53.624;9.786;2022-09-28T05:05:20;9.40;99.90
5392;DHT22;2719;53.624;9.786;2022-09-28T05:07:47;9.50;99.90
5392;DHT22;2719;53.624;9.786;2022-09-28T05:10:14;9.50;99.90
5392;DHT22;2719;53.624;9.786;2022-09-28T05:12:41;9.60;99.90
5392;DHT22;2719;53.624;9.786;2022-09-28T05:15:09;9.50;99.90
5392;DHT22;2719;53.624;9.786;2022-09-28T05:17:36;9.50;99.90
5392;DHT22;2719;53.624;9.786;2022-09-28T05:20:03;9.40;99.90
5392;DHT22;2719;53.624;9.786;2022-09-28T05:22:31;9.40;99.90
5392;DHT22;2719;53.624;9.786;2022-09-28T05:24:58;9.30;99.90
5392;DHT22;2719;53.624;9.786;2022-09-28T05:27:25;9.30;99.90
5392;DHT22;2719;53.624;9.786;2022-09-28T05:29:53;9.30;99.90
5392;DHT22;2719;53.624;9.786;2022-09-28T05:32:20;9.40;99.90
5392;DHT22;2719;53.624;9.786;2022-09-28T05:34:46;9.40;99.90
5392;DHT22;2719;53.624;9.786;2022-09-28T05:37:13;9.40;99.90
5392;DHT22;2719;53.624;9.786;2022-09-28T05:39:39;9.40;99.90
5392;DHT22;2719;53.624;9.786;2022-09-28T05:42:06;9.40;99.90
5392;DHT22;2719;53.624;9.786;2022-09-28T05:44:33;9.40;99.90
5392;DHT22;2719;53.624;9.786;2022-09-28T05:47:01;9.40;99.90
5392;DHT22;2719;53.624;9.786;2022-09-28T05:49:27;9.40;99.90
5392;DHT22;2719;53.624;9.786;2022-09-28T05:51:56;9.40;99.90
5392;DHT22;2719;53.624;9.786;2022-09-28T05:54:22;9.40;99.90
5392;DHT22;2719;53.624;9.786;2022-09-28T05:56:49;9.30;99.90
5392;DHT22;2719;53.624;9.786;2022-09-28T05:59:16;9.40;99.90
5392;DHT22;2719;53.624;9.786;2022-09-28T06:01:42;9.40;99.90
5392;DHT22;2719;53.624;9.786;2022-09-28T06:04:10;9.50;99.90
5392;DHT22;2719;53.624;9.786;2022-09-28T06:06:37;9.50;99.90
5392;DHT22;2719;53.624;9.786;2022-09-28T06:09:03;9.50;99.90
5392;DHT22;2719;53.624;9.786;2022-09-28T06:11:30;9.60;99.90
5392;DHT22;2719;53.624;9.786;2022-09-28T06:13:57;9.60;99.90
5392;DHT22;2719;53.624;9.786;2022-09-28T06:16:23;9.60;99.90
5392;DHT22;2719;53.624;9.786;2022-09-28T06:18:50;9.50;99.90
5392;DHT22;2719;53.624;9.786;2022-09-28T06:21:18;9.60;99.90
5392;DHT22;2719;53.624;9.786;2022-09-28T06:23:45;9.70;99.90
5392;DHT22;2719;53.624;9.786;2022-09-28T06:26:11;9.70;99.90
5392;DHT22;2719;53.624;9.786;2022-09-28T06:28:38;9.70;99.90
5392;DHT22;2719;53.624;9.786;2022-09-28T06:31:04;9.80;99.90
5392;DHT22;2719;53.624;9.786;2022-09-28T06:33:31;9.90;99.90
5392;DHT22;2719;53.624;9.786;2022-09-28T06:35:58;9.90;99.90
5392;DHT22;2719;53.624;9.786;2022-09-28T06:38:26;9.80;99.90
5392;DHT22;2719;53.624;9.786;2022-09-28T06:40:53;9.90;99.90
5392;DHT22;2719;53.624;9.786;2022-09-28T06:43:22;9.90;99.90
5392;DHT22;2719;53.624;9.786;2022-09-28T06:45:50;10.00;99.90
5392;DHT22;2719;53.624;9.786;2022-09-28T06:48:17;9.80;99.90
5392;DHT22;2719;53.624;9.786;2022-09-28T06:50:45;9.80;99.90
5392;DHT22;2719;53.624;9.786;2022-09-28T06:53:13;9.80;99.90
5392;DHT22;2719;53.624;9.786;2022-09-28T06:55:42;9.80;99.90
5392;DHT22;2719;53.624;9.786;2022-09-28T06:58:11;9.70;99.90
5392;DHT22;2719;53.624;9.786;2022-09-28T07:00:39;9.60;99.90
5392;DHT22;2719;53.624;9.786;2022-09-28T07:03:09;9.70;99.90
5392;DHT22;2719;53.624;9.786;2022-09-28T07:05:40;9.70;99.90
5392;DHT22;2719;53.624;9.786;2022-09-28T07:08:07;9.80;99.90
5392;DHT22;2719;53.624;9.786;2022-09-28T07:10:34;9.80;99.90
5392;DHT22;2719;53.624;9.786;2022-09-28T07:13:03;9.80;99.90
5392;DHT22;2719;53.624;9.786;2022-09-28T07:15:31;9.80;99.90
5392;DHT22;2719;53.624;9.786;2022-09-28T07:17:58;9.80;99.90
5392;DHT22;2719;53.624;9.786;2022-09-28T07:20:25;9.70;99.90
5392;DHT22;2719;53.624;9.786;2022-09-28T07:22:52;9.80;99.90
5392;DHT22;2719;53.624;9.786;2022-09-28T07:25:19;9.80;99.90
5392;DHT22;2719;53.624;9.786;2022-09-28T07:27:46;9.90;99.90
5392;DHT22;2719;53.624;9.786;2022-09-28T07:30:14;9.80;99.90
5392;DHT22;2719;53.624;9.786;2022-09-28T07:32:41;9.90;99.90
5392;DHT22;2719;53.624;9.786;2022-09-28T07:35:10;9.90;99.90
5392;DHT22;2719;53.624;9.786;2022-09-28T07:37:37;9.80;99.90
5392;DHT22;2719;53.624;9.786;2022-09-28T07:40:06;9.70;99.90
5392;DHT22;2719;53.624;9.786;2022-09-28T07:42:50;9.70;99.90
5392;DHT22;2719;53.624;9.786;2022-09-28T07:45:19;9.80;99.90
5392;DHT22;2719;53.624;9.786;2022-09-28T07:47:48;9.80;99.90
5392;DHT22;2719;53.624;9.786;2022-09-28T07:50:16;9.90;99.90
5392;DHT22;2719;53.624;9.786;2022-09-28T07:52:43;9.90;99.90
5392;DHT22;2719;53.624;9.786;2022-09-28T07:55:10;10.00;99.90
5392;DHT22;2719;53.624;9.786;2022-09-28T07:57:37;10.10;99.90
5392;DHT22;2719;53.624;9.786;2022-09-28T08:00:04;10.10;99.90
5392;DHT22;2719;53.624;9.786;2022-09-28T08:02:35;10.20;99.90
5392;DHT22;2719;53.624;9.786;2022-09-28T08:05:03;10.10;99.90
5392;DHT22;2719;53.624;9.786;2022-09-28T08:07:30;10.00;99.90
5392;DHT22;2719;53.624;9.786;2022-09-28T08:09:58;10.10;99.90
5392;DHT22;2719;53.624;9.786;2022-09-28T08:12:25;10.20;99.90
5392;DHT22;2719;53.624;9.786;2022-09-28T08:14:52;10.30;99.90
5392;DHT22;2719;53.624;9.786;2022-09-28T08:17:20;10.30;99.90
5392;DHT22;2719;53.624;9.786;2022-09-28T08:19:48;10.30;99.90
5392;DHT22;2719;53.624;9.786;2022-09-28T08:22:32;10.30;99.90
5392;DHT22;2719;53.624;9.786;2022-09-28T08:24:59;10.30;99.90
5392;DHT22;2719;53.624;9.786;2022-09-28T08:27:26;10.30;99.90
5392;DHT22;2719;53.624;9.786;2022-09-28T08:29:53;10.30;99.90
5392;DHT22;2719;53.624;9.786;2022-09-28T08:32:20;10.30;99.90
5392;DHT22;2719;53.624;9.786;2022-09-28T08:34:48;10.40;99.90
5392;DHT22;2719;53.624;9.786;2022-09-28T08:37:14;10.40;99.90
5392;DHT22;2719;53.624;9.786;2022-09-28T08:39:41;10.60;99.90
5392;DHT22;2719;53.624;9.786;2022-09-28T08:42:27;10.60;99.90
5392;DHT22;2719;53.624;9.786;2022-09-28T08:44:57;10.60;99.90
5392;DHT22;2719;53.624;9.786;2022-09-28T08:47:29;10.60;99.90
5392;DHT22;2719;53.624;9.786;2022-09-28T08:50:21;10.60;99.90
5392;DHT22;2719;53.624;9.786;2022-09-28T08:52:54;10.70;99.90
5392;DHT22;2719;53.624;9.786;2022-09-28T08:55:27;10.80;99.90
5392;DHT22;2719;53.624;9.786;2022-09-28T08:57:59;10.70;99.90
5392;DHT22;2719;53.624;9.786;2022-09-28T09:00:32;10.60;99.90
5392;DHT22;2719;53.624;9.786;2022-09-28T09:03:04;10.50;99.90
5392;DHT22;2719;53.624;9.786;2022-09-28T09:05:44;10.60;99.90
5392;DHT22;2719;53.624;9.786;2022-09-28T09:08:22;10.60;99.90
5392;DHT22;2719;53.624;9.786;2022-09-28T09:10:57;10.70;99.90
5392;DHT22;2719;53.624;9.786;2022-09-28T09:16:38;10.80;99.90
5392;DHT22;2719;53.624;9.786;2022-09-28T09:19:14;10.80;99.90
5392;DHT22;2719;53.624;9.786;2022-09-28T09:21:46;10.80;99.90
5392;DHT22;2719;53.624;9.786;2022-09-28T09:24:23;11.00;99.90
5392;DHT22;2719;53.624;9.786;2022-09-28T09:27:03;10.90;99.90
5392;DHT22;2719;53.624;9.786;2022-09-28T09:29:36;10.90;99.90
5392;DHT22;2719;53.624;9.786;2022-09-28T09:32:18;10.90;99.90
5392;DHT22;2719;53.624;9.786;2022-09-28T09:38:02;10.80;99.90
5392;DHT22;2719;53.624;9.786;2022-09-28T09:40:46;10.80;99.90
5392;DHT22;2719;53.624;9.786;2022-09-28T09:43:36;10.90;99.90
5392;DHT22;2719;53.624;9.786;2022-09-28T09:46:11;10.80;99.90
5392;DHT22;2719;53.624;9.786;2022-09-28T09:48:46;10.70;99.90
5392;DHT22;2719;53.624;9.786;2022-09-28T09:51:18;10.70;99.90
5392;DHT22;2719;53.624;9.786;2022-09-28T09:53:52;10.70;99.90
5392;DHT22;2719;53.624;9.786;2022-09-28T09:56:28;10.70;99.90
5392;DHT22;2719;53.624;9.786;2022-09-28T09:59:00;10.70;99.90
5392;DHT22;2719;53.624;9.786;2022-09-28T10:01:34;10.60;99.90
5392;DHT22;2719;53.624;9.786;2022-09-28T10:04:01;10.80;99.90
5392;DHT22;2719;53.624;9.786;2022-09-28T10:06:32;10.80;99.90
5392;DHT22;2719;53.624;9.786;2022-09-28T10:09:03;10.60;99.90
5392;DHT22;2719;53.624;9.786;2022-09-28T10:11:33;10.60;99.90
5392;DHT22;2719;53.624;9.786;2022-09-28T10:14:01;10.70;99.90
5392;DHT22;2719;53.624;9.786;2022-09-28T10:16:29;10.70;99.90
5392;DHT22;2719;53.624;9.786;2022-09-28T10:18:57;10.90;99.90
5392;DHT22;2719;53.624;9.786;2022-09-28T10:21:24;11.20;99.90
5392;DHT22;2719;53.624;9.786;2022-09-28T10:23:55;11.20;99.90
5392;DHT22;2719;53.624;9.786;2022-09-28T10:26:26;11.20;99.90
5392;DHT22;2719;53.624;9.786;2022-09-28T10:28:57;11.20;99.90
5392;DHT22;2719;53.624;9.786;2022-09-28T10:31:36;11.10;99.90
5392;DHT22;2719;53.624;9.786;2022-09-28T10:34:04;11.20;99.90
5392;DHT22;2719;53.624;9.786;2022-09-28T10:36:32;11.10;99.90
5392;DHT22;2719;53.624;9.786;2022-09-28T10:39:03;11.10;99.90
5392;DHT22;2719;53.624;9.786;2022-09-28T10:41:31;11.20;99.90
5392;DHT22;2719;53.624;9.786;2022-09-28T10:44:01;11.20;99.90
5392;DHT22;2719;53.624;9.786;2022-09-28T10:46:33;11.30;99.90
5392;DHT22;2719;53.624;9.786;2022-09-28T10:49:03;11.40;99.90
5392;DHT22;2719;53.624;9.786;2022-09-28T10:51:39;11.50;99.90
5392;DHT22;2719;53.624;9.786;2022-09-28T10:54:13;11.50;99.90
5392;DHT22;2719;53.624;9.786;2022-09-28T10:56:41;11.50;99.90
5392;DHT22;2719;53.624;9.786;2022-09-28T10:59:23;11.50;99.90
5392;DHT22;2719;53.624;9.786;2022-09-28T11:01:55;11.70;99.90
5392;DHT22;2719;53.624;9.786;2022-09-28T11:04:25;11.90;99.90
5392;DHT22;2719;53.624;9.786;2022-09-28T11:06:53;12.00;99.90
5392;DHT22;2719;53.624;9.786;2022-09-28T11:09:26;12.20;99.90
5392;DHT22;2719;53.624;9.786;2022-09-28T11:11:56;12.20;99.90
5392;DHT22;2719;53.624;9.786;2022-09-28T11:14:26;12.40;99.90
5392;DHT22;2719;53.624;9.786;2022-09-28T11:17:13;12.40;99.90
5392;DHT22;2719;53.624;9.786;2022-09-28T11:19:41;12.40;99.90
5392;DHT22;2719;53.624;9.786;2022-09-28T11:22:19;12.60;99.90
5392;DHT22;2719;53.624;9.786;2022-09-28T11:24:46;12.70;99.90
5392;DHT22;2719;53.624;9.786;2022-09-28T11:27:21;12.80;99.90
5392;DHT22;2719;53.624;9.786;2022-09-28T11:29:54;12.80;99.90
5392;DHT22;2719;53.624;9.786;2022-09-28T11:32:23;12.90;99.90
5392;DHT22;2719;53.624;9.786;2022-09-28T11:34:50;12.80;99.90
5392;DHT22;2719;53.624;9.786;2022-09-28T11:37:35;12.80;99.90
5392;DHT22;2719;53.624;9.786;2022-09-28T11:40:21;12.90;99.90
5392;DHT22;2719;53.624;9.786;2022-09-28T11:43:00;12.90;99.90
5392;DHT22;2719;53.624;9.786;2022-09-28T11:45:38;13.00;99.90
5392;DHT22;2719;53.624;9.786;2022-09-28T11:48:08;13.20;99.90
5392;DHT22;2719;53.624;9.786;2022-09-28T11:50:44;13.30;99.90
5392;DHT22;2719;53.624;9.786;2022-09-28T11:53:17;13.40;99.90
5392;DHT22;2719;53.624;9.786;2022-09-28T11:55:50;13.60;99.90
5392;DHT22;2719;53.624;9.786;2022-09-28T11:58:26;13.70;99.90
5392;DHT22;2719;53.624;9.786;2022-09-28T12:00:59;13.60;99.90
5392;DHT22;2719;53.624;9.786;2022-09-28T12:03:32;13.60;99.90
5392;DHT22;2719;53.624;9.786;2022-09-28T12:06:04;13.80;99.90
5392;DHT22;2719;53.624;9.786;2022-09-28T12:08:34;13.80;99.90
5392;DHT22;2719;53.624;9.786;2022-09-28T12:11:05;13.70;99.90
5392;DHT22;2719;53.624;9.786;2022-09-28T12:13:38;13.70;99.90
5392;DHT22;2719;53.624;9.786;2022-09-28T12:16:09;13.60;99.90
5392;DHT22;2719;53.624;9.786;2022-09-28T12:18:45;13.50;99.90
5392;DHT22;2719;53.624;9.786;2022-09-28T12:21:26;13.40;99.90
5392;DHT22;2719;53.624;9.786;2022-09-28T12:23:56;13.40;99.90
5392;DHT22;2719;53.624;9.786;2022-09-28T12:26:31;13.50;99.90
5392;DHT22;2719;53.624;9.786;2022-09-28T12:29:03;13.40;99.90
5392;DHT22;2719;53.624;9.786;2022-09-28T12:31:33;13.40;99.90
5392;DHT22;2719;53.624;9.786;2022-09-28T12:34:03;13.60;99.90
5392;DHT22;2719;53.624;9.786;2022-09-28T12:36:38;13.70;99.90
5392;DHT22;2719;53.624;9.786;2022-09-28T12:39:25;13.80;99.90
5392;DHT22;2719;53.624;9.786;2022-09-28T12:42:07;13.90;99.90
5392;DHT22;2719;53.624;9.786;2022-09-28T12:44:52;13.90;99.90
5392;DHT22;2719;53.624;9.786;2022-09-28T12:47:42;14.10;99.90
5392;DHT22;2719;53.624;9.786;2022-09-28T12:50:18;14.30;99.90
5392;DHT22;2719;53.624;9.786;2022-09-28T12:52:58;14.30;99.90
5392;DHT22;2719;53.624;9.786;2022-09-28T12:55:45;14.30;99.90
5392;DHT22;2719;53.624;9.786;2022-09-28T12:58:30;14.40;99.90
5392;DHT22;2719;53.624;9.786;2022-09-28T13:01:11;14.60;99.90
5392;DHT22;2719;53.624;9.786;2022-09-28T13:04:09;14.50;99.90
5392;DHT22;2719;53.624;9.786;2022-09-28T13:06:46;14.50;99.90
5392;DHT22;2719;53.624;9.786;2022-09-28T13:09:21;14.40;99.90
5392;DHT22;2719;53.624;9.786;2022-09-28T13:11:58;14.40;99.90
5392;DHT22;2719;53.624;9.786;2022-09-28T13:14:58;14.50;99.90
5392;DHT22;2719;53.624;9.786;2022-09-28T13:17:39;14.50;99.90
5392;DHT22;2719;53.624;9.786;2022-09-28T13:20:20;14.60;99.90
5392;DHT22;2719;53.624;9.786;2022-09-28T13:22:54;14.60;99.90
5392;DHT22;2719;53.624;9.786;2022-09-28T13:25:27;14.50;99.90
5392;DHT22;2719;53.624;9.786;2022-09-28T13:27:58;14.50;99.90
5392;DHT22;2719;53.624;9.786;2022-09-28T13:30:26;14.50;99.90
5392;DHT22;2719;53.624;9.786;2022-09-28T13:32:55;14.50;99.90
5392;DHT22;2719;53.624;9.786;2022-09-28T13:35:23;14.60;99.90
5392;DHT22;2719;53.624;9.786;2022-09-28T13:41:11;14.80;99.90
5392;DHT22;2719;53.624;9.786;2022-09-28T13:43:53;15.00;99.90
5392;DHT22;2719;53.624;9.786;2022-09-28T13:46:27;14.80;99.90
5392;DHT22;2719;53.624;9.786;2022-09-28T13:49:05;14.60;99.90
5392;DHT22;2719;53.624;9.786;2022-09-28T13:51:42;14.50;99.90
5392;DHT22;2719;53.624;9.786;2022-09-28T13:54:22;14.40;99.90
5392;DHT22;2719;53.624;9.786;2022-09-28T13:56:57;14.40;99.90
5392;DHT22;2719;53.624;9.786;2022-09-28T13:59:29;14.50;99.90
5392;DHT22;2719;53.624;9.786;2022-09-28T14:02:00;14.70;99.90
5392;DHT22;2719;53.624;9.786;2022-09-28T14:04:55;14.90;99.90
5392;DHT22;2719;53.624;9.786;2022-09-28T14:07:24;15.20;99.90
5392;DHT22;2719;53.624;9.786;2022-09-28T14:10:15;15.10;99.90
5392;DHT22;2719;53.624;9.786;2022-09-28T14:12:46;15.20;99.90
5392;DHT22;2719;53.624;9.786;2022-09-28T14:15:38;15.00;99.90
5392;DHT22;2719;53.624;9.786;2022-09-28T14:18:25;15.10;99.90
5392;DHT22;2719;53.624;9.786;2022-09-28T14:21:21;15.00;99.90
5392;DHT22;2719;53.624;9.786;2022-09-28T14:24:14;14.90;99.90
5392;DHT22;2719;53.624;9.786;2022-09-28T14:27:05;14.90;99.90
5392;DHT22;2719;53.624;9.786;2022-09-28T14:29:35;15.00;99.90
5392;DHT22;2719;53.624;9.786;2022-09-28T14:32:21;14.80;99.90
5392;DHT22;2719;53.624;9.786;2022-09-28T14:34:55;14.80;99.90
5392;DHT22;2719;53.624;9.786;2022-09-28T14:37:27;14.80;99.90
5392;DHT22;2719;53.624;9.786;2022-09-28T14:40:17;14.90;99.90
5392;DHT22;2719;53.624;9.786;2022-09-28T14:43:24;14.80;99.90
5392;DHT22;2719;53.624;9.786;2022-09-28T14:46:30;14.80;99.90
5392;DHT22;2719;53.624;9.786;2022-09-28T14:48:59;14.90;99.90
5392;DHT22;2719;53.624;9.786;2022-09-28T14:51:56;15.00;99.90
5392;DHT22;2719;53.624;9.786;2022-09-28T14:54:26;15.10;99.90
5392;DHT22;2719;53.624;9.786;2022-09-28T14:57:03;15.10;99.90
5392;DHT22;2719;53.624;9.786;2022-09-28T14:59:39;15.20;99.90
5392;DHT22;2719;53.624;9.786;2022-09-28T15:02:16;15.40;99.90
5392;DHT22;2719;53.624;9.786;2022-09-28T15:04:47;15.50;99.90
5392;DHT22;2719;53.624;9.786;2022-09-28T15:07:19;15.50;99.90
5392;DHT22;2719;53.624;9.786;2022-09-28T15:09:48;15.50;99.90
5392;DHT22;2719;53.624;9.786;2022-09-28T15:12:16;15.60;99.90
5392;DHT22;2719;53.624;9.786;2022-09-28T15:14:47;15.70;99.90
5392;DHT22;2719;53.624;9.786;2022-09-28T15:17:20;15.60;99.90
5392;DHT22;2719;53.624;9.786;2022-09-28T15:19:57;15.60;99.90
5392;DHT22;2719;53.624;9.786;2022-09-28T15:22:27;15.50;99.90
5392;DHT22;2719;53.624;9.786;2022-09-28T15:24:55;15.50;99.90
5392;DHT22;2719;53.624;9.786;2022-09-28T15:27:24;15.60;99.90
5392;DHT22;2719;53.624;9.786;2022-09-28T15:29:55;15.50;99.90
5392;DHT22;2719;53.624;9.786;2022-09-28T15:32:24;15.40;99.90
5392;DHT22;2719;53.624;9.786;2022-09-28T15:34:51;15.40;99.90
5392;DHT22;2719;53.624;9.786;2022-09-28T15:37:20;15.30;99.90
5392;DHT22;2719;53.624;9.786;2022-09-28T15:39:48;15.20;99.90
5392;DHT22;2719;53.624;9.786;2022-09-28T15:42:16;15.20;99.90
5392;DHT22;2719;53.624;9.786;2022-09-28T15:44:59;15.20;99.90
5392;DHT22;2719;53.624;9.786;2022-09-28T15:47:29;15.10;99.90
5392;DHT22;2719;53.624;9.786;2022-09-28T15:49:58;15.00;99.90
5392;DHT22;2719;53.624;9.786;2022-09-28T15:52:34;14.90;99.90
5392;DHT22;2719;53.624;9.786;2022-09-28T15:55:11;14.80;99.90
5392;DHT22;2719;53.624;9.786;2022-09-28T15:57:41;14.80;99.90
5392;DHT22;2719;53.624;9.786;2022-09-28T16:00:23;14.70;99.90
5392;DHT22;2719;53.624;9.786;2022-09-28T16:03:03;14.50;99.90
5392;DHT22;2719;53.624;9.786;2022-09-28T16:05:41;14.50;99.90
5392;DHT22;2719;53.624;9.786;2022-09-28T16:08:15;14.50;99.90
5392;DHT22;2719;53.624;9.786;2022-09-28T16:10:55;14.40;99.90
5392;DHT22;2719;53.624;9.786;2022-09-28T16:13:22;14.40;99.90
5392;DHT22;2719;53.624;9.786;2022-09-28T16:15:54;14.30;99.90
5392;DHT22;2719;53.624;9.786;2022-09-28T16:18:26;14.30;99.90
5392;DHT22;2719;53.624;9.786;2022-09-28T16:20:53;14.30;99.90
5392;DHT22;2719;53.624;9.786;2022-09-28T16:23:24;14.20;99.90
5392;DHT22;2719;53.624;9.786;2022-09-28T16:25:54;14.20;99.90
5392;DHT22;2719;53.624;9.786;2022-09-28T16:28:25;14.20;99.90
5392;DHT22;2719;53.624;9.786;2022-09-28T16:30:59;14.10;99.90
5392;DHT22;2719;53.624;9.786;2022-09-28T16:33:29;14.00;99.90
5392;DHT22;2719;53.624;9.786;2022-09-28T16:36:01;13.90;99.90
5392;DHT22;2719;53.624;9.786;2022-09-28T16:38:28;13.80;99.90
5392;DHT22;2719;53.624;9.786;2022-09-28T16:40:55;13.70;99.90
5392;DHT22;2719;53.624;9.786;2022-09-28T16:43:25;13.60;99.90
5392;DHT22;2719;53.624;9.786;2022-09-28T16:45:52;13.60;99.90
5392;DHT22;2719;53.624;9.786;2022-09-28T16:48:24;13.50;99.90